Time;durP1;ratioP1;P1;durP2;ratioP2;P2;SDS_P1;SDS_P2;PMS_P1;PMS_P2;Temp;Humidity;BMP_temperature;BMP_pressure;BME280_temperature;BME280_humidity;BME280_pressure;Samples;Min_cycle;Max_cycle;Signal;HPM_P1;HPM_P2
2022/09/17 00:01:58;;;;;;;5.53;4.30;;;14.90;99.90;;;;;;4995583;28;20228;-68
2022/09/17 00:04:24;;;;;;;4.97;4.00;;;15.00;99.90;;;;;;4994870;28;20187;-68
2022/09/17 00:06:49;;;;;;;4.67;4.10;;;14.90;99.90;;;;;;4994332;28;20307;-68
2022/09/17 00:09:15;;;;;;;5.53;4.63;;;14.90;99.90;;;;;;4994846;28;20267;-68
2022/09/17 00:11:42;;;;;;;4.53;4.00;;;15.00;99.90;;;;;;4995355;28;20181;-68
2022/09/17 00:14:14;;;;;;;5.20;4.33;;;15.00;99.90;;;;;;4995287;28;20411;-68
2022/09/17 00:16:43;;;;;;;4.17;3.87;;;15.00;99.90;;;;;;4995527;28;20413;-68
2022/09/17 00:19:21;;;;;;;4.80;4.37;;;15.00;99.90;;;;;;4995237;28;20404;-67
2022/09/17 00:21:50;;;;;;;4.60;4.00;;;15.00;99.90;;;;;;4995259;28;20408;-67
2022/09/17 00:24:17;;;;;;;4.83;4.30;;;15.00;99.90;;;;;;4994516;28;20412;-68
2022/09/17 00:26:43;;;;;;;7.17;4.40;;;15.10;99.90;;;;;;5000832;28;20906;-67
2022/09/17 00:29:09;;;;;;;7.53;4.87;;;15.10;99.90;;;;;;5014681;28;20458;-68
2022/09/17 00:31:35;;;;;;;7.17;5.40;;;15.10;99.90;;;;;;5013969;28;20409;-67
2022/09/17 00:34:02;;;;;;;5.73;5.30;;;15.10;99.90;;;;;;5014429;28;20497;-67
2022/09/17 00:36:28;;;;;;;5.00;4.10;;;15.10;99.90;;;;;;5003795;28;20465;-68
2022/09/17 00:38:58;;;;;;;7.03;4.40;;;15.00;99.90;;;;;;4994823;28;20760;-68
2022/09/17 00:41:30;;;;;;;5.27;3.67;;;15.00;99.90;;;;;;4994233;28;20413;-68
2022/09/17 00:44:20;;;;;;;7.27;4.60;;;15.00;99.90;;;;;;4994852;28;20395;-67
2022/09/17 00:46:47;;;;;;;5.40;4.47;;;15.00;99.90;;;;;;4994197;28;20408;-67
2022/09/17 00:49:19;;;;;;;6.93;4.87;;;15.00;99.90;;;;;;4994031;28;20431;-68
2022/09/17 00:51:54;;;;;;;6.00;5.30;;;15.00;99.90;;;;;;4994675;28;20396;-67
2022/09/17 00:54:20;;;;;;;9.73;6.20;;;15.00;99.90;;;;;;4994040;28;20422;-67
2022/09/17 00:56:47;;;;;;;6.73;6.00;;;15.00;99.90;;;;;;5000614;28;20500;-68
2022/09/17 00:59:14;;;;;;;7.33;6.73;;;14.90;99.90;;;;;;5013468;28;20917;-74
2022/09/17 01:01:40;;;;;;;7.27;6.63;;;14.90;99.90;;;;;;5013979;28;20399;-68
2022/09/17 01:04:06;;;;;;;10.30;6.83;;;14.90;99.90;;;;;;5013798;28;20438;-68
2022/09/17 01:06:46;;;;;;;6.30;5.37;;;14.90;99.90;;;;;;5013294;28;20911;-68
2022/09/17 01:09:44;;;;;;;8.70;7.23;;;14.90;99.90;;;;;;5013536;28;20408;-67
2022/09/17 01:12:20;;;;;;;5.63;5.10;;;15.00;99.90;;;;;;5000227;28;20442;-67
2022/09/17 01:14:46;;;;;;;7.90;5.57;;;14.90;99.90;;;;;;5013762;28;20437;-67
2022/09/17 01:17:31;;;;;;;8.53;5.03;;;14.90;99.90;;;;;;5013559;28;20416;-68
2022/09/17 01:20:31;;;;;;;6.23;5.03;;;14.90;99.90;;;;;;5013769;28;20415;-67
2022/09/17 01:23:20;;;;;;;8.33;5.67;;;14.90;99.90;;;;;;5013683;28;20489;-67
2022/09/17 01:26:08;;;;;;;6.77;5.10;;;14.80;99.90;;;;;;5012619;28;20438;-68
2022/09/17 01:28:46;;;;;;;7.03;5.73;;;14.80;99.90;;;;;;5003685;28;20961;-67
2022/09/17 01:31:29;;;;;;;5.33;4.83;;;14.80;99.90;;;;;;4993993;28;20487;-68
2022/09/17 01:34:19;;;;;;;5.60;5.10;;;14.80;99.90;;;;;;4959527;28;20493;-68
2022/09/17 01:36:58;;;;;;;5.67;5.17;;;14.70;99.90;;;;;;4993467;28;20976;-68
2022/09/17 01:39:30;;;;;;;6.53;5.70;;;14.70;99.90;;;;;;4993221;28;20412;-67
2022/09/17 01:42:22;;;;;;;6.97;5.23;;;14.80;99.90;;;;;;4994151;28;20412;-67
2022/09/17 01:45:07;;;;;;;6.40;5.50;;;14.80;99.90;;;;;;4970640;28;20419;-67
2022/09/17 01:47:42;;;;;;;8.77;5.77;;;14.80;99.90;;;;;;4992958;28;20463;-67
2022/09/17 01:50:16;;;;;;;8.90;6.60;;;14.90;99.90;;;;;;4993678;28;20421;-67
2022/09/17 01:52:44;;;;;;;8.77;6.80;;;14.90;99.90;;;;;;4993524;28;20530;-67
2022/09/17 01:55:13;;;;;;;10.20;7.40;;;14.90;99.90;;;;;;4993622;28;20418;-67
2022/09/17 01:57:42;;;;;;;10.00;7.33;;;14.80;99.90;;;;;;5008205;28;20429;-68
2022/09/17 02:00:14;;;;;;;11.20;7.70;;;14.70;99.90;;;;;;5013322;28;20431;-67
2022/09/17 02:02:58;;;;;;;8.97;8.17;;;14.70;99.90;;;;;;5012524;28;20388;-67
2022/09/17 02:05:29;;;;;;;12.10;8.17;;;14.70;99.90;;;;;;5012104;28;20928;-68
2022/09/17 02:08:02;;;;;;;12.20;9.30;;;14.60;99.90;;;;;;5012965;28;20458;-68
2022/09/17 02:10:33;;;;;;;12.30;10.77;;;14.60;99.90;;;;;;5011180;28;20405;-68
2022/09/17 02:13:11;;;;;;;13.67;9.90;;;14.70;99.90;;;;;;5012579;28;20422;-67
2022/09/17 02:15:42;;;;;;;11.90;10.20;;;14.60;99.90;;;;;;5011398;28;20789;-67
2022/09/17 02:18:22;;;;;;;13.17;11.00;;;14.60;99.90;;;;;;5012993;28;20413;-67
2022/09/17 02:20:55;;;;;;;13.80;10.80;;;14.60;99.90;;;;;;5012918;28;20424;-67
2022/09/17 02:23:28;;;;;;;14.83;12.00;;;14.70;99.90;;;;;;5012251;28;20403;-68
2022/09/17 02:26:05;;;;;;;13.23;10.87;;;14.80;99.90;;;;;;5012872;28;20398;-68
2022/09/17 02:28:48;;;;;;;16.40;12.93;;;14.80;99.90;;;;;;5027348;28;20465;-68
2022/09/17 02:31:14;;;;;;;13.50;12.13;;;14.80;99.90;;;;;;5016874;28;20394;-68
2022/09/17 02:33:43;;;;;;;14.63;13.10;;;14.80;99.90;;;;;;5015915;28;20787;-68
2022/09/17 02:36:11;;;;;;;14.03;11.37;;;14.90;99.90;;;;;;5016514;28;20459;-67
2022/09/17 02:38:40;;;;;;;12.93;11.00;;;14.90;99.90;;;;;;5015982;28;20518;-67
2022/09/17 02:41:19;;;;;;;13.37;11.33;;;14.90;99.90;;;;;;5016647;28;20422;-68
2022/09/17 02:44:09;;;;;;;12.50;10.97;;;14.90;99.90;;;;;;5016853;28;20403;-67
2022/09/17 02:46:57;;;;;;;11.13;9.93;;;14.90;99.90;;;;;;5014973;28;20930;-68
2022/09/17 02:49:31;;;;;;;13.53;11.43;;;14.90;99.90;;;;;;5015857;28;20416;-68
2022/09/17 02:52:18;;;;;;;10.87;9.77;;;14.70;99.90;;;;;;5016453;28;20887;-68
2022/09/17 02:55:14;;;;;;;12.00;9.10;;;14.70;99.90;;;;;;5016311;28;20475;-67
2022/09/17 02:57:50;;;;;;;12.07;9.10;;;14.80;99.90;;;;;;5015814;28;20421;-67
2022/09/17 03:00:19;;;;;;;9.00;7.90;;;14.80;99.90;;;;;;5013758;28;20429;-68
2022/09/17 03:02:52;;;;;;;10.37;7.90;;;14.80;99.90;;;;;;4996600;28;20402;-68
2022/09/17 03:05:20;;;;;;;10.40;8.13;;;14.80;99.90;;;;;;4996795;28;20832;-67
2022/09/17 03:07:46;;;;;;;11.27;7.10;;;14.80;99.90;;;;;;4996432;28;20507;-68
2022/09/17 03:10:12;;;;;;;8.23;7.00;;;14.80;99.90;;;;;;4996428;28;20501;-67
2022/09/17 03:12:38;;;;;;;12.50;7.83;;;14.80;99.90;;;;;;4995514;28;20825;-68
2022/09/17 03:15:05;;;;;;;7.80;7.10;;;14.80;99.90;;;;;;4996637;28;20419;-69
2022/09/17 03:17:31;;;;;;;9.33;6.63;;;14.70;99.90;;;;;;4996079;28;20458;-68
2022/09/17 03:19:56;;;;;;;7.60;6.93;;;14.80;99.90;;;;;;4996504;28;20847;-67
2022/09/17 03:22:22;;;;;;;9.47;7.13;;;14.70;99.90;;;;;;4995637;28;20492;-67
2022/09/17 03:24:48;;;;;;;10.50;5.97;;;14.80;99.90;;;;;;4996265;28;20182;-67
2022/09/17 03:27:14;;;;;;;8.07;5.43;;;14.70;99.90;;;;;;4996127;28;20215;-67
2022/09/17 03:29:40;;;;;;;6.43;5.50;;;14.80;99.90;;;;;;4945287;28;20797;-68
2022/09/17 03:32:06;;;;;;;10.40;5.83;;;14.80;99.90;;;;;;4996071;28;20539;-67
2022/09/17 03:34:32;;;;;;;6.50;5.50;;;14.80;99.90;;;;;;4995079;28;20180;-67
2022/09/17 03:36:57;;;;;;;9.20;5.53;;;14.80;99.90;;;;;;5008716;28;20820;-68
2022/09/17 03:39:23;;;;;;;8.53;6.00;;;14.80;99.90;;;;;;4995326;28;20270;-68
2022/09/17 03:41:50;;;;;;;6.40;5.30;;;14.90;99.90;;;;;;4994239;28;20213;-68
2022/09/17 03:44:18;;;;;;;8.63;5.47;;;14.90;99.90;;;;;;4995496;28;20179;-68
2022/09/17 03:46:44;;;;;;;11.37;6.43;;;14.90;99.90;;;;;;4994874;28;20414;-67
2022/09/17 03:49:10;;;;;;;6.57;5.90;;;14.90;99.90;;;;;;4994635;28;20452;-67
2022/09/17 03:51:35;;;;;;;8.20;6.67;;;14.80;99.90;;;;;;4995125;28;20411;-67
2022/09/17 03:54:02;;;;;;;11.03;7.37;;;14.80;99.90;;;;;;4996047;28;20187;-67
2022/09/17 03:56:28;;;;;;;8.40;7.00;;;14.80;99.90;;;;;;4995051;28;20179;-68
2022/09/17 03:59:02;;;;;;;12.97;8.60;;;14.80;99.90;;;;;;4995591;28;20511;-67
2022/09/17 04:01:28;;;;;;;7.70;6.90;;;14.80;99.90;;;;;;5007830;28;20240;-68
2022/09/17 04:03:54;;;;;;;10.70;8.37;;;14.90;99.90;;;;;;5014641;28;20421;-68
2022/09/17 04:06:20;;;;;;;8.50;7.70;;;14.90;99.90;;;;;;5015033;28;20186;-67
2022/09/17 04:08:45;;;;;;;9.10;7.23;;;14.80;99.90;;;;;;5014658;28;20795;-67
2022/09/17 04:11:11;;;;;;;10.63;6.43;;;14.80;99.90;;;;;;5014970;28;20650;-67
2022/09/17 04:13:37;;;;;;;9.20;5.50;;;14.80;99.90;;;;;;5014593;28;20187;-67
2022/09/17 04:16:03;;;;;;;8.10;5.90;;;14.80;99.90;;;;;;5014877;28;20812;-67
2022/09/17 04:18:29;;;;;;;8.13;5.73;;;14.80;99.90;;;;;;5014231;28;20210;-67
2022/09/17 04:20:55;;;;;;;9.40;5.50;;;14.80;99.90;;;;;;5014875;28;20766;-67
2022/09/17 04:23:22;;;;;;;6.00;4.90;;;14.80;99.90;;;;;;5014701;28;20497;-67
2022/09/17 04:25:48;;;;;;;7.03;5.23;;;14.80;99.90;;;;;;5014092;28;20838;-67
2022/09/17 04:28:13;;;;;;;5.37;4.87;;;14.80;99.90;;;;;;5014276;28;20548;-67
2022/09/17 04:30:41;;;;;;;8.80;4.80;;;14.80;99.90;;;;;;5011980;28;20503;-68
2022/09/17 04:33:07;;;;;;;7.70;5.07;;;14.70;99.90;;;;;;5012910;28;20536;-68
2022/09/17 04:35:33;;;;;;;7.00;5.03;;;14.70;99.90;;;;;;5013750;28;20564;-68
2022/09/17 04:37:59;;;;;;;7.87;5.10;;;14.70;99.90;;;;;;5014624;28;20497;-68
2022/09/17 04:40:26;;;;;;;6.87;4.83;;;14.70;99.90;;;;;;5014490;28;20191;-67
2022/09/17 04:42:56;;;;;;;8.70;5.57;;;14.70;99.90;;;;;;5014335;28;20185;-68
2022/09/17 04:45:22;;;;;;;8.00;4.63;;;14.70;99.90;;;;;;5014434;28;20421;-68
2022/09/17 04:47:49;;;;;;;4.97;4.47;;;14.70;99.90;;;;;;5013574;28;20496;-68
2022/09/17 04:50:17;;;;;;;9.07;5.30;;;14.70;99.90;;;;;;5014168;28;20416;-68
2022/09/17 04:52:44;;;;;;;8.10;4.97;;;14.70;99.90;;;;;;5013151;28;20749;-67
2022/09/17 04:55:10;;;;;;;5.23;4.10;;;14.70;99.90;;;;;;5014160;28;20418;-67
2022/09/17 04:57:36;;;;;;;6.97;3.67;;;14.70;99.90;;;;;;5013476;28;20424;-68
2022/09/17 05:00:09;;;;;;;6.43;4.37;;;14.70;99.90;;;;;;5012714;28;20426;-67
2022/09/17 05:02:35;;;;;;;5.83;3.60;;;14.70;99.90;;;;;;5013402;28;20413;-68
2022/09/17 05:05:01;;;;;;;5.47;4.17;;;14.70;99.90;;;;;;5013668;28;20421;-67
2022/09/17 05:07:26;;;;;;;8.13;4.20;;;14.70;99.90;;;;;;5013837;28;20214;-67
2022/09/17 05:09:55;;;;;;;5.13;3.97;;;14.70;99.90;;;;;;5013475;28;20182;-67
2022/09/17 05:12:21;;;;;;;4.93;3.70;;;14.70;99.90;;;;;;5013861;28;20407;-67
2022/09/17 05:14:46;;;;;;;7.30;3.27;;;14.70;99.90;;;;;;5013223;28;21009;-67
2022/09/17 05:17:12;;;;;;;7.07;3.53;;;14.80;99.90;;;;;;5013763;28;20231;-67
2022/09/17 05:19:37;;;;;;;6.83;3.50;;;14.70;99.90;;;;;;5013158;28;20616;-68
2022/09/17 05:22:03;;;;;;;5.23;3.60;;;14.80;99.90;;;;;;5013756;28;20660;-67
2022/09/17 05:24:29;;;;;;;6.37;3.23;;;14.80;99.90;;;;;;5012752;28;20184;-69
2022/09/17 05:26:55;;;;;;;7.40;3.53;;;14.80;99.90;;;;;;5013485;28;20225;-67
2022/09/17 05:29:21;;;;;;;5.00;3.47;;;14.80;99.90;;;;;;5012648;28;20503;-67
2022/09/17 05:31:47;;;;;;;7.53;4.33;;;14.80;99.90;;;;;;5012951;28;20370;-68
2022/09/17 05:34:12;;;;;;;6.83;3.60;;;14.80;99.90;;;;;;5013432;28;20171;-68
2022/09/17 05:36:38;;;;;;;5.87;3.60;;;14.90;99.90;;;;;;5012765;28;20234;-67
2022/09/17 05:39:03;;;;;;;8.47;4.07;;;14.90;99.90;;;;;;5013703;28;20184;-67
2022/09/17 05:41:29;;;;;;;9.97;4.60;;;14.90;99.90;;;;;;5012907;28;20233;-75
2022/09/17 05:43:55;;;;;;;3.97;3.67;;;14.90;99.90;;;;;;5013356;28;20182;-67
2022/09/17 05:46:22;;;;;;;5.10;4.10;;;14.90;99.90;;;;;;5013144;28;20687;-68
2022/09/17 05:48:48;;;;;;;4.53;4.00;;;14.90;99.90;;;;;;5012577;28;20496;-67
2022/09/17 05:51:13;;;;;;;7.30;3.67;;;14.80;99.90;;;;;;5013242;28;20195;-67
2022/09/17 05:53:39;;;;;;;6.60;3.80;;;14.90;99.90;;;;;;5012637;28;20179;-67
2022/09/17 05:56:05;;;;;;;4.13;3.73;;;14.90;99.90;;;;;;5012133;28;20266;-67
2022/09/17 05:58:33;;;;;;;3.80;3.37;;;14.90;99.90;;;;;;5012555;28;20179;-73
2022/09/17 06:01:01;;;;;;;8.90;3.50;;;14.90;99.90;;;;;;5013055;28;20535;-67
2022/09/17 06:03:27;;;;;;;4.90;3.67;;;15.00;99.90;;;;;;5012573;28;20503;-67
2022/09/17 06:05:57;;;;;;;9.57;3.57;;;15.00;99.90;;;;;;5012155;28;20453;-67
2022/09/17 06:08:24;;;;;;;5.90;3.90;;;15.00;99.90;;;;;;5012966;28;20351;-67
2022/09/17 06:10:50;;;;;;;4.30;3.13;;;15.00;99.90;;;;;;5012292;28;20403;-67
2022/09/17 06:13:19;;;;;;;9.40;3.53;;;15.00;99.90;;;;;;5012614;28;20906;-67
2022/09/17 06:15:50;;;;;;;4.50;3.27;;;15.00;99.90;;;;;;5012296;28;20179;-67
2022/09/17 06:18:16;;;;;;;6.27;3.33;;;15.00;99.90;;;;;;5012416;28;20962;-67
2022/09/17 06:20:41;;;;;;;3.80;3.00;;;15.00;99.90;;;;;;5012299;28;20500;-67
2022/09/17 06:23:07;;;;;;;6.20;3.37;;;15.00;99.90;;;;;;5012799;28;20183;-67
2022/09/17 06:25:34;;;;;;;3.73;3.40;;;15.10;99.90;;;;;;5011884;28;20229;-68
2022/09/17 06:28:02;;;;;;;6.40;3.30;;;15.10;99.90;;;;;;5011302;28;20544;-67
2022/09/17 06:30:27;;;;;;;5.43;3.63;;;15.10;99.90;;;;;;5012731;28;20431;-68
2022/09/17 06:32:53;;;;;;;5.73;3.67;;;15.20;99.90;;;;;;5012078;28;20815;-66
2022/09/17 06:35:19;;;;;;;3.73;3.27;;;15.70;99.90;;;;;;5010417;28;20231;-66
2022/09/17 06:37:44;;;;;;;4.00;3.50;;;16.40;99.90;;;;;;4992923;28;20250;-66
2022/09/17 06:40:10;;;;;;;7.50;4.13;;;16.90;99.90;;;;;;4995549;28;20190;-67
2022/09/17 06:42:36;;;;;;;7.70;5.60;;;17.40;99.90;;;;;;4992695;28;20182;-67
2022/09/17 06:45:03;;;;;;;10.40;8.10;;;17.70;99.90;;;;;;4993067;28;20168;-66
2022/09/17 06:47:28;;;;;;;7.17;6.00;;;18.00;99.80;;;;;;4993345;28;20549;-67
2022/09/17 06:49:55;;;;;;;8.30;6.00;;;18.10;98.70;;;;;;5011889;28;20497;-66
2022/09/17 06:52:22;;;;;;;5.20;4.70;;;18.10;98.40;;;;;;5012543;28;20183;-66
2022/09/17 06:54:47;;;;;;;6.53;5.07;;;18.20;97.90;;;;;;5011848;28;20521;-67
2022/09/17 06:57:13;;;;;;;5.00;3.67;;;18.20;97.80;;;;;;5012694;28;20471;-66
2022/09/17 06:59:39;;;;;;;9.27;6.40;;;18.20;97.50;;;;;;5011588;28;20175;-67
2022/09/17 07:02:05;;;;;;;29.80;21.30;;;18.30;97.60;;;;;;4994570;28;20422;-66
2022/09/17 07:04:31;;;;;;;7.73;5.80;;;18.40;97.00;;;;;;5011282;28;20187;-66
2022/09/17 07:06:56;;;;;;;14.27;11.00;;;18.30;95.60;;;;;;5011728;28;20729;-66
2022/09/17 07:09:22;;;;;;;13.67;9.73;;;18.30;97.10;;;;;;5012326;28;20191;-67
2022/09/17 07:11:48;;;;;;;14.50;4.60;;;18.40;97.00;;;;;;5011566;28;20643;-66
2022/09/17 07:14:14;;;;;;;4.10;2.93;;;18.30;96.10;;;;;;5012344;28;20260;-66
2022/09/17 07:16:39;;;;;;;10.77;6.60;;;18.20;95.00;;;;;;5014470;28;20180;-67
2022/09/17 07:19:05;;;;;;;11.93;8.53;;;18.10;97.10;;;;;;5015958;28;20214;-67
2022/09/17 07:21:31;;;;;;;31.73;22.07;;;18.10;97.10;;;;;;5015910;28;20208;-66
2022/09/17 07:23:57;;;;;;;115.67;79.50;;;18.30;96.70;;;;;;5015242;28;20496;-66
2022/09/17 07:26:23;;;;;;;20.53;14.90;;;18.40;96.20;;;;;;5015783;28;20190;-67
2022/09/17 07:28:49;;;;;;;7.00;4.83;;;18.50;96.10;;;;;;4996930;28;20462;-66
2022/09/17 07:31:15;;;;;;;10.73;4.97;;;18.60;94.80;;;;;;5015842;28;20198;-66
2022/09/17 07:33:41;;;;;;;5.83;3.30;;;18.30;95.20;;;;;;5014174;28;20270;-69
2022/09/17 07:36:12;;;;;;;9.23;5.70;;;18.10;96.50;;;;;;5009339;28;20474;-66
2022/09/17 07:38:38;;;;;;;9.87;5.50;;;18.10;96.70;;;;;;4995407;28;20411;-67
2022/09/17 07:41:12;;;;;;;7.53;6.60;;;18.10;96.50;;;;;;4996202;28;20861;-66
2022/09/17 07:43:37;;;;;;;6.23;3.40;;;18.40;96.00;;;;;;4995264;28;20485;-67
2022/09/17 07:46:05;;;;;;;7.37;4.83;;;18.50;95.30;;;;;;4995965;28;20494;-67
2022/09/17 07:48:31;;;;;;;4.90;3.80;;;18.50;95.50;;;;;;4995862;28;20231;-67
2022/09/17 07:50:57;;;;;;;4.80;3.73;;;18.50;95.10;;;;;;4995194;28;20712;-66
2022/09/17 07:53:24;;;;;;;4.40;3.50;;;18.50;94.80;;;;;;4996044;28;20418;-67
2022/09/17 07:55:58;;;;;;;6.40;3.90;;;18.50;94.90;;;;;;4995130;28;20787;-67
2022/09/17 07:58:32;;;;;;;7.03;4.47;;;18.50;95.10;;;;;;4978120;28;20426;-66
2022/09/17 08:01:10;;;;;;;4.13;3.73;;;18.50;95.00;;;;;;4994966;28;20813;-66
2022/09/17 08:03:37;;;;;;;3.50;2.90;;;18.60;94.80;;;;;;4995426;28;20395;-67
2022/09/17 08:06:07;;;;;;;6.23;3.00;;;18.60;94.50;;;;;;5013662;28;20468;-67
2022/09/17 08:08:34;;;;;;;5.53;3.27;;;18.50;94.80;;;;;;5015302;28;20460;-67
2022/09/17 08:11:06;;;;;;;5.10;3.30;;;18.60;94.70;;;;;;5014423;28;20829;-66
2022/09/17 08:13:33;;;;;;;4.17;2.87;;;18.50;94.40;;;;;;5014934;28;20820;-66
2022/09/17 08:16:00;;;;;;;4.73;3.30;;;18.50;95.40;;;;;;5014223;28;20665;-67
2022/09/17 08:18:28;;;;;;;5.63;3.23;;;18.60;95.10;;;;;;5014766;28;20418;-66
2022/09/17 08:20:58;;;;;;;3.87;3.20;;;18.70;95.30;;;;;;5014157;28;20407;-66
2022/09/17 08:23:25;;;;;;;4.43;3.70;;;18.70;95.30;;;;;;5014839;28;20813;-66
2022/09/17 08:25:55;;;;;;;3.03;2.57;;;18.70;95.00;;;;;;5014128;28;20410;-67
2022/09/17 08:28:24;;;;;;;4.10;3.00;;;18.80;95.00;;;;;;5013821;28;20616;-67
2022/09/17 08:30:50;;;;;;;3.93;3.57;;;19.00;94.60;;;;;;5014008;28;20469;-67
2022/09/17 08:33:16;;;;;;;5.73;3.17;;;19.10;93.90;;;;;;5014733;28;20409;-66
2022/09/17 08:35:53;;;;;;;9.10;3.73;;;19.20;93.60;;;;;;5012489;28;20470;-67
2022/09/17 08:38:19;;;;;;;3.70;3.20;;;19.20;93.40;;;;;;5001290;28;20461;-66
2022/09/17 08:41:09;;;;;;;5.90;2.67;;;19.30;93.60;;;;;;4994269;28;20430;-66
2022/09/17 08:43:57;;;;;;;4.37;3.10;;;19.30;93.40;;;;;;4995081;28;20388;-67
2022/09/17 08:46:24;;;;;;;3.43;2.47;;;19.20;93.20;;;;;;4994572;28;20486;-66
2022/09/17 08:49:20;;;;;;;4.10;2.93;;;19.20;93.40;;;;;;4976594;28;20465;-67
2022/09/17 08:52:01;;;;;;;6.40;4.10;;;19.20;92.30;;;;;;4994140;28;20442;-67
2022/09/17 08:54:48;;;;;;;14.77;10.50;;;19.10;93.10;;;;;;4994636;28;20403;-66
2022/09/17 08:57:41;;;;;;;14.30;12.20;;;19.10;92.80;;;;;;4995962;28;20764;-66
2022/09/17 09:00:13;;;;;;;14.47;9.77;;;19.20;91.30;;;;;;5005285;28;20411;-66
2022/09/17 09:03:03;;;;;;;17.27;12.40;;;19.20;90.90;;;;;;5003187;28;20413;-66
2022/09/17 09:05:37;;;;;;;24.90;16.50;;;19.30;90.30;;;;;;4999591;28;20434;-71
2022/09/17 09:08:09;;;;;;;85.67;60.57;;;19.30;90.00;;;;;;5002552;28;20734;-67
2022/09/17 09:10:47;;;;;;;8.80;6.70;;;19.20;90.40;;;;;;5004819;28;20415;-65
2022/09/17 09:13:17;;;;;;;2.63;2.33;;;19.40;90.30;;;;;;5005308;28;20411;-66
2022/09/17 09:16:12;;;;;;;6.33;5.30;;;19.40;89.30;;;;;;5001940;28;20391;-67
2022/09/17 09:18:41;;;;;;;5.67;4.60;;;19.30;90.10;;;;;;5004919;28;20894;-66
2022/09/17 09:21:28;;;;;;;4.63;3.90;;;19.40;90.00;;;;;;5003969;28;20430;-67
2022/09/17 09:24:23;;;;;;;4.57;3.60;;;19.40;89.00;;;;;;5002851;28;20458;-66
2022/09/17 09:27:04;;;;;;;3.93;3.60;;;19.50;89.00;;;;;;5005966;28;20751;-67
2022/09/17 09:29:50;;;;;;;4.73;2.60;;;19.50;89.30;;;;;;5002731;28;20486;-66
2022/09/17 09:32:40;;;;;;;4.23;2.37;;;19.40;89.10;;;;;;4989692;28;20464;-66
2022/09/17 09:35:18;;;;;;;3.10;2.80;;;19.30;89.60;;;;;;5003367;28;20906;-67
2022/09/17 09:38:08;;;;;;;2.80;2.60;;;19.20;89.50;;;;;;5003612;28;20422;-69
2022/09/17 09:40:43;;;;;;;4.90;2.90;;;19.20;90.00;;;;;;5001448;28;20981;-67
2022/09/17 09:43:16;;;;;;;2.87;2.50;;;19.40;89.10;;;;;;5005267;28;20440;-67
2022/09/17 09:45:48;;;;;;;4.73;2.70;;;19.50;86.90;;;;;;5001750;28;20788;-67
2022/09/17 09:48:44;;;;;;;2.97;2.40;;;19.40;87.20;;;;;;5001327;28;20461;-68
2022/09/17 09:51:34;;;;;;;3.77;2.60;;;19.50;86.20;;;;;;5000557;28;20786;-66
2022/09/17 09:54:18;;;;;;;3.53;2.93;;;19.60;85.20;;;;;;5000374;28;20426;-65
2022/09/17 09:56:58;;;;;;;3.20;2.70;;;19.60;84.00;;;;;;5003802;28;20514;-72
2022/09/17 09:59:25;;;;;;;3.53;2.50;;;19.70;83.90;;;;;;5001239;28;20403;-66
2022/09/17 10:01:51;;;;;;;2.97;2.30;;;19.50;84.20;;;;;;5001739;28;20407;-66
2022/09/17 10:04:26;;;;;;;3.40;3.00;;;19.50;84.00;;;;;;5004349;28;20813;-67
2022/09/17 10:07:06;;;;;;;3.53;2.87;;;19.60;84.00;;;;;;5002327;28;20433;-67
2022/09/17 10:09:35;;;;;;;2.80;2.30;;;19.80;83.00;;;;;;5002418;28;20399;-66
2022/09/17 10:12:12;;;;;;;2.70;2.50;;;19.80;83.00;;;;;;5001206;28;20414;-66
2022/09/17 10:14:39;;;;;;;3.03;2.80;;;19.80;82.60;;;;;;5003899;28;20406;-67
2022/09/17 10:17:25;;;;;;;6.30;4.70;;;19.90;82.20;;;;;;5003565;28;21181;-67
2022/09/17 10:20:10;;;;;;;7.50;5.60;;;19.80;81.20;;;;;;5012198;28;20410;-67
2022/09/17 10:22:44;;;;;;;19.50;13.07;;;19.80;81.70;;;;;;5010140;28;20534;-67
2022/09/17 10:25:29;;;;;;;4.67;4.20;;;19.80;81.70;;;;;;5001689;28;20525;-68
2022/09/17 10:27:57;;;;;;;3.00;2.80;;;19.80;80.90;;;;;;5001232;28;20469;-67
2022/09/17 10:30:24;;;;;;;4.03;2.80;;;19.90;80.20;;;;;;5001382;28;20431;-66
2022/09/17 10:33:17;;;;;;;2.67;2.43;;;19.90;80.20;;;;;;5000107;28;20421;-67
2022/09/17 10:35:55;;;;;;;4.73;2.63;;;19.80;79.00;;;;;;5001008;28;20455;-67
2022/09/17 10:38:35;;;;;;;2.57;2.40;;;19.80;79.20;;;;;;5003022;28;20446;-67
2022/09/17 10:41:27;;;;;;;3.10;2.40;;;19.90;78.60;;;;;;5000200;28;20781;-67
2022/09/17 10:43:52;;;;;;;4.10;2.50;;;20.00;77.50;;;;;;4998363;28;20414;-67
2022/09/17 10:46:24;;;;;;;3.03;2.30;;;20.00;76.50;;;;;;5000698;28;20442;-67
2022/09/17 10:49:35;;;;;;;3.80;3.50;;;20.30;76.30;;;;;;5000056;28;20209;-69
2022/09/17 10:52:36;;;;;;;3.13;2.90;;;20.30;74.10;;;;;;4919722;29;20483;-67
2022/09/17 10:55:13;;;;;;;3.10;3.00;;;20.20;72.80;;;;;;4914043;29;20430;-67
2022/09/17 10:57:51;;;;;;;2.40;2.30;;;20.30;73.20;;;;;;4917088;29;21000;-67
2022/09/17 11:00:22;;;;;;;2.43;2.23;;;20.20;73.90;;;;;;4933492;29;20418;-67
2022/09/17 11:03:06;;;;;;;2.80;2.20;;;20.20;73.50;;;;;;4934389;29;20851;-67
2022/09/17 11:06:09;;;;;;;1.90;1.90;;;20.30;73.60;;;;;;4932630;29;20425;-67
2022/09/17 11:08:48;;;;;;;1.90;1.80;;;20.20;72.20;;;;;;4934003;29;21008;-69
2022/09/17 11:11:28;;;;;;;1.67;1.50;;;20.10;72.20;;;;;;4934866;29;20447;-67
2022/09/17 11:14:25;;;;;;;1.80;1.60;;;20.00;73.20;;;;;;4934352;29;20832;-65
2022/09/17 11:17:26;;;;;;;1.70;1.50;;;19.80;75.40;;;;;;4934252;29;20465;-65
2022/09/17 11:20:08;;;;;;;1.60;1.50;;;19.50;76.60;;;;;;4932975;29;20405;-65
2022/09/17 11:23:11;;;;;;;2.10;1.60;;;19.40;77.20;;;;;;4961722;28;20427;-65
2022/09/17 11:25:49;;;;;;;1.53;1.43;;;19.40;76.80;;;;;;5006392;28;20403;-66
2022/09/17 11:28:34;;;;;;;1.70;1.37;;;19.50;76.80;;;;;;5006070;28;20450;-66
2022/09/17 11:31:15;;;;;;;1.60;1.50;;;19.70;76.90;;;;;;5004977;28;20418;-65
2022/09/17 11:33:44;;;;;;;1.60;1.50;;;19.80;75.80;;;;;;5005030;28;20411;-65
2022/09/17 11:36:24;;;;;;;1.60;1.50;;;19.80;76.80;;;;;;5005176;28;20482;-65
2022/09/17 11:38:52;;;;;;;1.47;1.37;;;19.80;77.30;;;;;;5004929;28;20438;-65
2022/09/17 11:41:26;;;;;;;1.60;1.50;;;19.90;76.90;;;;;;5006024;28;20471;-65
2022/09/17 11:44:11;;;;;;;3.37;1.47;;;19.90;78.10;;;;;;5005114;28;20414;-65
2022/09/17 11:46:49;;;;;;;1.77;1.67;;;19.70;79.70;;;;;;5003920;28;20427;-65
2022/09/17 11:49:33;;;;;;;1.97;1.87;;;19.50;80.00;;;;;;5002951;28;20446;-65
2022/09/17 11:52:21;;;;;;;2.57;1.77;;;19.40;80.20;;;;;;5001792;28;20941;-65
2022/09/17 11:55:08;;;;;;;1.53;1.43;;;19.30;80.40;;;;;;5000920;28;20427;-72
2022/09/17 11:57:38;;;;;;;1.83;1.73;;;19.30;81.10;;;;;;5004619;28;20960;-67
2022/09/17 12:00:12;;;;;;;3.00;1.73;;;19.30;81.10;;;;;;5006180;28;20799;-67
2022/09/17 12:02:51;;;;;;;2.47;2.27;;;19.40;80.20;;;;;;5002897;28;20449;-66
2022/09/17 12:05:29;;;;;;;22.27;16.83;;;19.50;79.70;;;;;;5006924;28;20426;-66
2022/09/17 12:08:09;;;;;;;42.90;36.93;;;19.70;79.60;;;;;;4985959;28;20442;-67
2022/09/17 12:10:47;;;;;;;57.43;46.20;;;19.80;79.00;;;;;;5005404;28;20415;-67
2022/09/17 12:13:36;;;;;;;4.63;4.10;;;19.80;78.60;;;;;;5004692;28;20490;-66
2022/09/17 12:16:14;;;;;;;2.40;2.20;;;19.90;78.30;;;;;;4971412;28;20561;-67
2022/09/17 12:19:27;;;;;;;2.60;2.40;;;19.80;79.30;;;;;;5005056;28;20921;-67
2022/09/17 12:21:58;;;;;;;2.00;1.90;;;19.70;79.30;;;;;;4994602;28;20415;-67
2022/09/17 12:24:26;;;;;;;2.30;2.20;;;19.50;80.10;;;;;;5003874;28;20805;-67
2022/09/17 12:27:00;;;;;;;1.50;1.50;;;19.40;81.30;;;;;;5003996;28;20738;-67
2022/09/17 12:29:32;;;;;;;2.53;2.33;;;19.30;81.30;;;;;;5003583;28;20961;-67
2022/09/17 12:32:20;;;;;;;2.03;1.87;;;19.30;81.80;;;;;;4987724;28;20411;-68
2022/09/17 12:34:57;;;;;;;1.63;1.53;;;19.40;81.90;;;;;;5003503;28;20906;-67
2022/09/17 12:37:50;;;;;;;2.00;1.90;;;19.40;81.00;;;;;;4985871;28;20832;-67
2022/09/17 12:40:40;;;;;;;1.80;1.70;;;19.40;82.00;;;;;;4985186;28;20412;-67
2022/09/17 12:43:12;;;;;;;1.40;1.30;;;19.40;80.90;;;;;;4981649;28;20419;-67
2022/09/17 12:46:06;;;;;;;2.50;1.80;;;19.20;81.30;;;;;;4982817;28;20423;-68
2022/09/17 12:48:56;;;;;;;1.80;1.70;;;19.20;82.40;;;;;;4983455;28;20929;-66
2022/09/17 12:51:37;;;;;;;2.00;1.70;;;19.20;83.30;;;;;;4983186;28;20826;-67
2022/09/17 12:54:28;;;;;;;1.83;1.73;;;19.10;84.60;;;;;;4984774;28;20460;-67
2022/09/17 12:57:23;;;;;;;2.37;2.20;;;19.00;88.30;;;;;;4983685;28;20428;-67
2022/09/17 13:00:09;;;;;;;3.20;1.90;;;19.20;86.20;;;;;;4983484;28;20411;-68
2022/09/17 13:02:50;;;;;;;2.83;1.90;;;19.20;87.50;;;;;;4984212;28;20907;-67
2022/09/17 13:05:42;;;;;;;1.87;1.80;;;19.30;87.10;;;;;;4982690;28;20427;-68
2022/09/17 13:08:23;;;;;;;2.10;2.00;;;19.10;88.70;;;;;;4983255;28;21284;-68
2022/09/17 13:11:05;;;;;;;2.30;2.10;;;19.10;89.00;;;;;;4982352;28;20439;-67
2022/09/17 13:13:46;;;;;;;2.53;2.30;;;19.10;89.50;;;;;;4981085;28;20435;-67
2022/09/17 13:16:17;;;;;;;4.23;2.20;;;18.90;89.00;;;;;;4983537;28;20407;-67